Time;durP1;ratioP1;P1;durP2;ratioP2;P2;SDS_P1;SDS_P2;PMS_P1;PMS_P2;Temp;Humidity;BMP_temperature;BMP_pressure;BME280_temperature;BME280_humidity;BME280_pressure;Samples;Min_cycle;Max_cycle;Signal;HPM_P1;HPM_P2
2022/02/25 00:00:08;;;;;;;;;1.67;1.67;;;;;9.41;47.94;101764.13;2067306;28;47407;-58
2022/02/25 00:01:10;;;;;;;;;1.25;1.00;;;;;9.40;48.02;101765.88;2069423;28;47674;-58
2022/02/25 00:02:10;;;;;;;;;0.00;0.00;;;;;9.41;48.03;101765.00;2069282;28;47939;-59
2022/02/25 00:03:13;;;;;;;;;1.00;1.00;;;;;9.41;48.07;101764.13;2069253;28;47781;-58
2022/02/25 00:04:13;;;;;;;;;1.25;1.00;;;;;9.40;48.10;101767.63;2069709;28;47336;-57
2022/02/25 00:05:14;;;;;;;;;3.00;1.00;;;;;9.41;48.22;101769.41;2069411;28;47697;-58
2022/02/25 00:06:17;;;;;;;;;1.67;0.00;;;;;9.40;47.89;101764.97;2070928;28;47661;-57
2022/02/25 00:07:17;;;;;;;;;2.00;1.00;;;;;9.41;47.99;101780.03;2069424;28;48180;-58
2022/02/25 00:08:17;;;;;;;;;2.67;0.00;;;;;9.40;47.93;101772.91;2070164;28;45883;-58
2022/02/25 00:09:18;;;;;;;;;1.00;1.00;;;;;9.37;47.79;101772.94;2069269;28;48080;-58
2022/02/25 00:10:19;;;;;;;;;0.67;0.67;;;;;9.36;48.10;101771.16;2070360;28;47911;-58
2022/02/25 00:11:20;;;;;;;;;3.50;1.25;;;;;9.37;48.16;101775.56;2068667;28;47685;-56
2022/02/25 00:12:20;;;;;;;;;1.00;1.00;;;;;9.36;48.21;101773.81;2070441;28;47439;-56
2022/02/25 00:13:21;;;;;;;;;2.67;1.33;;;;;9.34;48.27;101770.28;2069881;28;47536;-58
2022/02/25 00:14:21;;;;;;;;;3.00;2.00;;;;;9.34;48.14;101776.47;2067970;28;46358;-58
2022/02/25 00:15:22;;;;;;;;;1.00;1.00;;;;;9.34;48.39;101779.13;2069257;28;48035;-58
2022/02/25 00:16:22;;;;;;;;;0.67;0.00;;;;;9.35;48.24;101780.00;2068368;28;47996;-57
2022/02/25 00:17:22;;;;;;;;;1.00;1.00;;;;;9.35;48.35;101780.00;2069868;28;47355;-58
2022/02/25 00:18:25;;;;;;;;;1.00;1.00;;;;;9.35;48.32;101780.00;2070384;28;47640;-57
2022/02/25 00:19:25;;;;;;;;;1.00;1.00;;;;;9.33;48.42;101782.66;2069181;28;47779;-58
2022/02/25 00:20:26;;;;;;;;;1.67;1.67;;;;;9.34;48.86;101779.13;2063318;28;47588;-57
2022/02/25 00:21:26;;;;;;;;;1.33;1.00;;;;;9.34;48.25;101778.25;2067650;28;47636;-57
2022/02/25 00:22:27;;;;;;;;;2.33;2.00;;;;;9.34;48.25;101786.19;2070122;28;47704;-59
2022/02/25 00:23:27;;;;;;;;;2.00;0.67;;;;;9.33;48.44;101785.31;2060642;28;47847;-58
2022/02/25 00:24:28;;;;;;;;;2.00;2.00;;;;;9.34;48.56;101786.19;2060801;28;47915;-56
2022/02/25 00:25:28;;;;;;;;;2.00;2.00;;;;;9.34;48.73;101783.53;2069570;28;47262;-54
2022/02/25 00:26:28;;;;;;;;;3.00;2.00;;;;;9.33;48.74;101787.94;2070924;28;47563;-57
2022/02/25 00:27:29;;;;;;;;;1.00;1.00;;;;;9.32;48.73;101778.25;2068676;28;47442;-59
2022/02/25 00:28:29;;;;;;;;;3.00;3.00;;;;;9.32;48.67;101786.19;2070221;28;47923;-61
2022/02/25 00:29:30;;;;;;;;;1.00;1.00;;;;;9.31;48.73;101791.50;2068589;28;47305;-57
2022/02/25 00:30:30;;;;;;;;;0.33;0.33;;;;;9.30;48.81;101789.72;2070213;28;47685;-57
2022/02/25 00:31:31;;;;;;;;;3.00;2.00;;;;;9.30;48.85;101789.72;2067875;28;47585;-57
2022/02/25 00:32:32;;;;;;;;;1.00;1.00;;;;;9.29;48.77;101785.31;2069740;28;47919;-56
2022/02/25 00:33:32;;;;;;;;;2.33;1.00;;;;;9.29;48.65;101790.59;2068005;28;47619;-55
2022/02/25 00:34:33;;;;;;;;;0.67;0.67;;;;;9.28;48.84;101795.03;2070734;28;47037;-57
2022/02/25 00:35:33;;;;;;;;;0.00;0.00;;;;;9.27;48.74;101795.88;2070227;28;48060;-59
2022/02/25 00:36:33;;;;;;;;;1.67;1.33;;;;;9.26;48.65;101799.41;2077805;28;47574;-57
2022/02/25 00:37:34;;;;;;;;;1.33;1.33;;;;;9.25;48.85;101795.00;2074073;28;47582;-57
2022/02/25 00:38:35;;;;;;;;;2.67;1.67;;;;;9.25;48.91;101802.06;2070209;28;47462;-58
2022/02/25 00:39:35;;;;;;;;;5.00;2.00;;;;;9.25;48.79;101796.75;2069136;28;47742;-57
2022/02/25 00:40:35;;;;;;;;;3.00;1.00;;;;;9.25;49.08;101810.00;2070127;28;47701;-57
2022/02/25 00:41:36;;;;;;;;;1.00;1.00;;;;;9.24;48.89;101806.47;2069041;28;46580;-55
2022/02/25 00:42:37;;;;;;;;;1.00;1.00;;;;;9.25;48.98;101799.41;2070839;28;47855;-56
2022/02/25 00:43:37;;;;;;;;;3.33;2.67;;;;;9.25;48.98;101807.34;2069618;28;47767;-54
2022/02/25 00:44:37;;;;;;;;;2.33;1.33;;;;;9.24;49.00;101806.47;2070130;28;47479;-58
2022/02/25 00:45:38;;;;;;;;;0.67;0.67;;;;;9.24;48.96;101814.41;2069323;28;47222;-59
2022/02/25 00:46:38;;;;;;;;;3.00;1.00;;;;;9.24;49.18;101808.25;2071593;28;47712;-58
2022/02/25 00:47:39;;;;;;;;;0.67;0.67;;;;;9.23;48.91;101812.66;2069805;28;47199;-58
2022/02/25 00:48:39;;;;;;;;;2.00;2.00;;;;;9.22;48.81;101813.53;2070546;28;47675;-58
2022/02/25 00:49:40;;;;;;;;;3.67;3.00;;;;;9.21;49.08;101814.41;2068883;28;47806;-58
2022/02/25 00:50:41;;;;;;;;;3.00;2.00;;;;;9.23;49.32;101814.41;2069783;28;46995;-58
2022/02/25 00:51:41;;;;;;;;;2.67;2.67;;;;;9.24;48.97;101813.53;2069263;28;47333;-57
2022/02/25 00:52:42;;;;;;;;;3.33;2.00;;;;;9.24;49.04;101818.84;2069875;28;47229;-57
2022/02/25 00:53:43;;;;;;;;;1.25;1.25;;;;;9.23;48.89;101817.94;2065977;28;48124;-58
2022/02/25 00:54:44;;;;;;;;;2.00;2.00;;;;;9.22;48.92;101823.25;2070978;28;47210;-56
2022/02/25 00:55:44;;;;;;;;;1.25;1.00;;;;;9.22;48.97;101820.59;2068821;28;47833;-59
2022/02/25 00:56:45;;;;;;;;;1.00;1.00;;;;;9.22;48.94;101823.25;2071068;28;47758;-59
2022/02/25 00:57:46;;;;;;;;;0.00;0.00;;;;;9.21;48.73;101825.03;2069413;28;47336;-58
2022/02/25 00:58:46;;;;;;;;;3.00;2.00;;;;;9.21;49.09;101822.38;2069438;28;48638;-58
2022/02/25 00:59:46;;;;;;;;;1.00;1.00;;;;;9.21;49.01;101822.38;2064523;28;48303;-60
2022/02/25 01:00:47;;;;;;;;;2.00;1.00;;;;;9.23;49.24;101832.97;2070593;28;47234;-57
2022/02/25 01:01:48;;;;;;;;;1.00;1.00;;;;;9.22;48.96;101825.91;2073088;28;47635;-57
2022/02/25 01:02:48;;;;;;;;;0.67;0.00;;;;;9.19;48.95;101824.13;2053420;28;47819;-58
2022/02/25 01:03:48;;;;;;;;;3.00;0.67;;;;;9.17;49.02;101820.59;2051683;28;47886;-57
2022/02/25 01:04:49;;;;;;;;;1.00;1.00;;;;;9.17;49.15;101822.38;2063635;28;47193;-59
2022/02/25 01:05:49;;;;;;;;;2.00;2.00;;;;;9.15;49.23;101827.66;2068656;28;47989;-58
2022/02/25 01:06:50;;;;;;;;;2.67;1.67;;;;;9.13;49.35;101829.41;2070899;28;48301;-57
2022/02/25 01:07:50;;;;;;;;;2.00;2.00;;;;;9.11;49.11;101824.09;2067829;28;47758;-57
2022/02/25 01:08:50;;;;;;;;;2.00;1.00;;;;;9.09;49.28;101825.88;2071237;28;47364;-58
2022/02/25 01:09:51;;;;;;;;;3.33;1.00;;;;;9.09;49.19;101828.53;2068509;28;48079;-59
2022/02/25 01:10:51;;;;;;;;;4.00;1.00;;;;;9.09;49.45;101831.19;2069634;28;47546;-57
2022/02/25 01:11:52;;;;;;;;;1.33;1.33;;;;;9.08;49.36;101825.88;2066368;28;48010;-58
2022/02/25 01:12:53;;;;;;;;;2.00;1.00;;;;;9.07;49.41;101826.75;2071045;28;47834;-58
2022/02/25 01:13:53;;;;;;;;;1.67;1.67;;;;;9.06;49.42;101833.81;2069825;28;47659;-58
2022/02/25 01:14:53;;;;;;;;;1.33;1.00;;;;;9.05;49.44;101825.88;2071088;28;47667;-57
2022/02/25 01:15:54;;;;;;;;;2.00;1.67;;;;;9.05;49.84;101831.19;2066364;28;47917;-58
2022/02/25 01:16:55;;;;;;;;;0.00;0.00;;;;;9.03;49.58;101831.19;2071016;28;47958;-57
2022/02/25 01:17:55;;;;;;;;;1.67;1.00;;;;;9.03;49.63;101831.19;2065620;28;47272;-58
2022/02/25 01:18:56;;;;;;;;;1.00;1.00;;;;;9.03;49.66;101833.81;2066332;28;47860;-57
2022/02/25 01:19:57;;;;;;;;;1.00;1.00;;;;;9.04;49.69;101832.06;2065948;28;47418;-58
2022/02/25 01:20:58;;;;;;;;;0.50;0.50;;;;;9.04;49.59;101843.53;2074195;28;47415;-55
2022/02/25 01:21:58;;;;;;;;;1.33;1.33;;;;;9.05;49.65;101844.41;2072198;28;47478;-56
2022/02/25 01:22:59;;;;;;;;;1.00;1.00;;;;;9.05;49.69;101847.94;2070774;28;47732;-57
2022/02/25 01:23:59;;;;;;;;;2.67;2.00;;;;;9.04;49.68;101845.28;2068517;28;48010;-56
2022/02/25 01:25:00;;;;;;;;;1.00;1.00;;;;;9.04;49.79;101847.94;2070983;28;47601;-58
2022/02/25 01:26:01;;;;;;;;;2.00;1.75;;;;;9.04;49.76;101842.66;2068387;28;47994;-58
2022/02/25 01:27:03;;;;;;;;;0.67;0.67;;;;;9.04;49.86;101848.81;2070900;28;47782;-56
2022/02/25 01:28:04;;;;;;;;;0.50;0.50;;;;;9.05;49.92;101847.06;2068375;28;47830;-57
2022/02/25 01:29:04;;;;;;;;;2.33;2.33;;;;;9.05;49.66;101836.47;2070742;28;47529;-58
2022/02/25 01:30:05;;;;;;;;;4.00;2.00;;;;;9.04;49.55;101846.19;2067476;28;47461;-56
2022/02/25 01:31:06;;;;;;;;;1.75;1.75;;;;;9.04;49.97;101850.59;2071243;28;48025;-57
2022/02/25 01:32:07;;;;;;;;;1.00;1.00;;;;;9.03;49.63;101843.53;2068875;28;47363;-57
2022/02/25 01:33:07;;;;;;;;;2.00;2.00;;;;;9.02;49.84;101845.28;2071259;28;47626;-57
2022/02/25 01:34:08;;;;;;;;;2.33;1.00;;;;;9.01;49.92;101845.25;2070970;28;47929;-58
2022/02/25 01:35:09;;;;;;;;;2.33;1.00;;;;;9.00;49.66;101840.84;2071411;28;47478;-58
2022/02/25 01:36:09;;;;;;;;;1.00;1.00;;;;;9.00;49.89;101851.44;2067538;28;47627;-59
2022/02/25 01:37:10;;;;;;;;;1.33;1.00;;;;;8.99;49.86;101842.63;2075219;28;47946;-57
2022/02/25 01:38:10;;;;;;;;;2.00;2.00;;;;;8.99;49.91;101847.03;2057637;28;47409;-57
2022/02/25 01:39:10;;;;;;;;;0.00;0.00;;;;;8.97;49.73;101851.44;2062795;28;47842;-58
2022/02/25 01:40:11;;;;;;;;;3.33;2.00;;;;;8.97;49.79;101843.50;2068398;28;47227;-58
2022/02/25 01:41:12;;;;;;;;;2.00;1.00;;;;;8.96;49.71;101847.91;2071147;28;47997;-57
2022/02/25 01:42:13;;;;;;;;;0.33;0.33;;;;;8.95;49.72;101842.63;2070983;28;47402;-58
2022/02/25 01:43:13;;;;;;;;;3.00;2.00;;;;;8.94;49.76;101844.38;2071239;28;47489;-58
2022/02/25 01:44:15;;;;;;;;;1.33;1.00;;;;;8.92;50.00;101848.78;2068430;28;47318;-58
2022/02/25 01:45:16;;;;;;;;;3.25;1.75;;;;;8.94;50.21;101846.16;2070317;28;47628;-58
2022/02/25 01:46:17;;;;;;;;;1.00;1.00;;;;;8.93;49.89;101858.50;2062678;28;46413;-58
2022/02/25 01:47:18;;;;;;;;;1.00;1.00;;;;;8.93;49.88;101855.84;2061447;28;47127;-57
2022/02/25 01:48:19;;;;;;;;;2.33;1.00;;;;;8.94;50.04;101849.66;2069996;28;47371;-55
2022/02/25 01:49:20;;;;;;;;;1.75;1.75;;;;;8.92;49.79;101846.16;2064926;28;47900;-58
2022/02/25 01:50:21;;;;;;;;;0.00;0.00;;;;;8.93;50.05;101852.31;2068067;28;47431;-56
2022/02/25 01:51:23;;;;;;;;;1.00;1.00;;;;;8.93;50.02;101857.63;2069516;28;47989;-58
2022/02/25 01:52:24;;;;;;;;;1.00;1.00;;;;;8.93;49.98;101847.03;2071579;28;47596;-59
2022/02/25 01:53:25;;;;;;;;;4.00;2.67;;;;;8.93;49.91;101852.31;2070105;28;47252;-57
2022/02/25 01:54:28;;;;;;;;;2.00;2.00;;;;;8.93;49.94;101845.25;2072056;28;48055;-58
2022/02/25 01:55:33;;;;;;;;;2.75;1.75;;;;;8.93;50.16;101836.44;2069135;28;47260;-57
2022/02/25 01:56:37;;;;;;;;;1.00;1.00;;;;;8.92;50.07;101845.25;2069612;28;47529;-58
2022/02/25 01:57:37;;;;;;;;;3.75;2.00;;;;;8.92;49.86;101837.31;2070270;28;47638;-58
2022/02/25 01:58:38;;;;;;;;;2.00;2.00;;;;;8.91;50.00;101838.19;2068223;28;47011;-55
2022/02/25 01:59:39;;;;;;;;;2.00;2.00;;;;;8.90;49.84;101841.72;2071004;28;47236;-55
2022/02/25 02:00:39;;;;;;;;;1.00;1.00;;;;;8.88;50.13;101839.03;2072096;28;47673;-56
2022/02/25 02:01:40;;;;;;;;;1.00;1.00;;;;;8.88;49.96;101839.03;2070178;28;47865;-56
2022/02/25 02:02:41;;;;;;;;;2.50;1.00;;;;;8.87;50.03;101847.88;2072247;28;48171;-58
2022/02/25 02:03:41;;;;;;;;;1.00;0.67;;;;;8.85;49.91;101845.22;2070051;28;47782;-57
2022/02/25 02:04:42;;;;;;;;;2.00;2.00;;;;;8.84;50.08;101847.88;2071022;28;47553;-57
2022/02/25 02:05:43;;;;;;;;;3.00;1.00;;;;;8.83;50.05;101846.09;2069994;28;48253;-57
2022/02/25 02:06:43;;;;;;;;;1.33;1.33;;;;;8.81;49.91;101847.88;2061222;28;46432;-58
2022/02/25 02:07:44;;;;;;;;;0.00;0.00;;;;;8.80;50.04;101851.38;2058268;28;47888;-58
2022/02/25 02:08:44;;;;;;;;;0.67;0.67;;;;;8.80;50.04;101848.75;2061851;28;47191;-59
2022/02/25 02:09:45;;;;;;;;;1.67;1.67;;;;;8.80;50.08;101857.56;2060770;28;47471;-58
2022/02/25 02:10:45;;;;;;;;;1.00;1.00;;;;;8.79;50.17;101846.97;2054775;28;47554;-57
2022/02/25 02:11:48;;;;;;;;;2.00;1.00;;;;;8.78;50.14;101854.03;2049373;28;47299;-57
2022/02/25 02:12:49;;;;;;;;;1.50;1.00;;;;;8.76;50.07;101852.22;2072065;28;47621;-57
2022/02/25 02:13:49;;;;;;;;;3.00;1.00;;;;;8.75;50.13;101850.47;2068898;28;47762;-56
2022/02/25 02:14:50;;;;;;;;;0.67;0.00;;;;;8.75;50.30;101850.47;2072042;28;47704;-56
2022/02/25 02:15:50;;;;;;;;;2.00;2.00;;;;;8.75;50.26;101855.75;2067139;28;48075;-58
2022/02/25 02:16:53;;;;;;;;;3.00;0.67;;;;;8.74;50.13;101846.94;2072289;28;45625;-56
2022/02/25 02:17:54;;;;;;;;;1.00;1.00;;;;;8.73;50.33;101845.19;2066667;28;47572;-58
2022/02/25 02:18:55;;;;;;;;;2.00;1.00;;;;;8.71;50.29;101857.53;2071285;28;47602;-55
2022/02/25 02:19:55;;;;;;;;;3.00;1.00;;;;;8.71;50.27;101846.06;2069732;28;47498;-57
2022/02/25 02:20:56;;;;;;;;;1.00;0.33;;;;;8.70;50.40;101846.94;2067859;28;47815;-56
2022/02/25 02:21:57;;;;;;;;;1.33;1.33;;;;;8.68;50.32;101841.63;2070958;28;48084;-58
2022/02/25 02:22:57;;;;;;;;;1.00;1.00;;;;;8.67;50.27;101834.59;2072201;28;47599;-57
2022/02/25 02:23:59;;;;;;;;;0.33;0.33;;;;;8.68;50.38;101844.28;2069724;28;46931;-57
2022/02/25 02:25:00;;;;;;;;;1.00;1.00;;;;;8.69;50.50;101845.16;2079063;28;47613;-58
2022/02/25 02:26:01;;;;;;;;;1.50;1.50;;;;;8.68;50.48;101844.28;2068781;28;47938;-57
2022/02/25 02:27:02;;;;;;;;;1.00;1.00;;;;;8.68;50.33;101840.75;2062480;28;47541;-57
2022/02/25 02:28:17;;;;;;;;;2.00;2.00;;;;;8.69;50.36;101846.06;2066873;28;48199;-57
2022/02/25 02:29:18;;;;;;;;;0.25;0.25;;;;;8.69;50.59;101845.16;2069956;28;47502;-57
2022/02/25 02:30:20;;;;;;;;;1.00;1.00;;;;;8.69;50.35;101839.88;2068593;28;47406;-57
2022/02/25 02:31:21;;;;;;;;;1.00;1.00;;;;;8.68;50.41;101839.00;2069967;28;47713;-57
2022/02/25 02:32:21;;;;;;;;;1.00;1.00;;;;;8.67;50.40;101845.16;2054288;28;47649;-58
2022/02/25 02:33:21;;;;;;;;;2.00;0.00;;;;;8.68;50.29;101848.69;2052757;28;46438;-56
2022/02/25 02:34:22;;;;;;;;;1.33;1.33;;;;;8.69;50.59;101847.81;2070887;28;47883;-56
2022/02/25 02:35:22;;;;;;;;;3.67;2.33;;;;;8.68;50.48;101841.63;2069915;28;48091;-56
2022/02/25 02:36:23;;;;;;;;;3.00;1.00;;;;;8.68;50.43;101840.75;2070669;28;47829;-55
2022/02/25 02:37:23;;;;;;;;;1.00;1.00;;;;;8.68;50.57;101844.28;2061232;28;47376;-55
2022/02/25 02:38:24;;;;;;;;;1.00;1.00;;;;;8.67;50.50;101845.16;2061811;28;47974;-58
2022/02/25 02:39:24;;;;;;;;;1.00;1.00;;;;;8.68;50.77;101846.06;2069632;28;47914;-57
2022/02/25 02:40:25;;;;;;;;;2.00;2.00;;;;;8.67;50.74;101845.16;2070865;28;48018;-57
2022/02/25 02:41:25;;;;;;;;;1.67;1.67;;;;;8.67;50.59;101845.16;2068510;28;47649;-58
2022/02/25 02:42:26;;;;;;;;;1.00;1.00;;;;;8.67;50.63;101850.47;2069491;28;47217;-57
2022/02/25 02:43:26;;;;;;;;;0.67;0.00;;;;;8.67;50.65;101845.16;2069030;28;47454;-57
2022/02/25 02:44:27;;;;;;;;;1.00;1.00;;;;;8.67;50.73;101844.28;2069249;28;47773;-58
2022/02/25 02:45:27;;;;;;;;;0.33;0.33;;;;;8.66;50.64;101847.81;2070019;28;47954;-56
2022/02/25 02:46:28;;;;;;;;;2.00;2.00;;;;;8.64;50.59;101839.88;2070778;28;47256;-57
2022/02/25 02:47:29;;;;;;;;;1.67;1.00;;;;;8.66;50.74;101850.47;2069807;28;46805;-57
2022/02/25 02:48:29;;;;;;;;;1.00;1.00;;;;;8.64;50.87;101845.16;2067942;28;47600;-57
2022/02/25 02:49:29;;;;;;;;;1.67;1.67;;;;;8.65;50.87;101846.03;2057698;28;47951;-58
2022/02/25 02:50:31;;;;;;;;;1.00;1.00;;;;;8.64;50.95;101849.53;2069559;28;47541;-57
2022/02/25 02:51:31;;;;;;;;;1.25;1.25;;;;;8.65;51.02;101844.28;2069246;28;47697;-57
2022/02/25 02:52:32;;;;;;;;;1.67;1.67;;;;;8.65;50.99;101848.69;2071673;28;47713;-57
2022/02/25 02:53:34;;;;;;;;;3.67;2.00;;;;;8.66;50.76;101843.41;2069998;28;47658;-57
2022/02/25 02:54:35;;;;;;;;;1.25;1.25;;;;;8.65;50.76;101840.75;2070601;28;48372;-56
2022/02/25 02:55:35;;;;;;;;;1.33;1.33;;;;;8.63;51.00;101835.41;2067800;28;47292;-58
2022/02/25 02:56:36;;;;;;;;;1.67;1.67;;;;;8.62;50.60;101844.25;2070550;28;47204;-58
2022/02/25 02:57:36;;;;;;;;;2.00;1.00;;;;;8.63;50.92;101843.38;2070073;28;47802;-56
2022/02/25 02:58:37;;;;;;;;;2.00;1.00;;;;;8.63;51.09;101842.47;2071281;28;47539;-56
2022/02/25 02:59:37;;;;;;;;;0.33;0.33;;;;;8.63;51.09;101842.47;2069715;28;48376;-55
2022/02/25 03:00:40;;;;;;;;;1.00;1.00;;;;;8.62;50.96;101838.06;2071561;28;47541;-58
2022/02/25 03:01:41;;;;;;;;;1.00;1.00;;;;;8.62;51.04;101833.66;2069596;28;47708;-58
2022/02/25 03:02:42;;;;;;;;;2.00;0.50;;;;;8.62;50.88;101843.34;2070401;28;48035;-56
2022/02/25 03:03:42;;;;;;;;;2.00;1.00;;;;;8.61;51.01;101845.13;2069790;28;47899;-55
2022/02/25 03:04:43;;;;;;;;;0.33;0.33;;;;;8.60;51.08;101845.13;2070472;28;47475;-57
2022/02/25 03:05:45;;;;;;;;;2.00;2.00;;;;;8.59;51.10;101840.72;2066467;28;47822;-56
2022/02/25 03:06:46;;;;;;;;;1.00;1.00;;;;;8.57;51.07;101837.19;2070975;28;47510;-57
2022/02/25 03:07:46;;;;;;;;;1.00;1.00;;;;;8.58;51.14;101847.75;2068901;28;47991;-57
2022/02/25 03:08:47;;;;;;;;;3.67;1.67;;;;;8.59;51.27;101843.34;2071616;28;47554;-58
2022/02/25 03:09:48;;;;;;;;;1.00;1.00;;;;;8.58;51.40;101842.47;2068490;28;47946;-58
2022/02/25 03:10:49;;;;;;;;;1.25;1.25;;;;;8.59;51.23;101832.78;2071518;28;47603;-58
2022/02/25 03:11:52;;;;;;;;;0.00;0.00;;;;;8.59;51.13;101835.41;2068849;28;47756;-56
2022/02/25 03:12:52;;;;;;;;;1.00;0.00;;;;;8.59;50.73;101838.94;2071580;28;47756;-56
2022/02/25 03:13:53;;;;;;;;;0.00;0.00;;;;;8.59;51.19;101835.41;2066122;28;48327;-57
2022/02/25 03:14:54;;;;;;;;;2.50;2.00;;;;;8.58;51.42;101834.53;2063464;28;47881;-57
2022/02/25 03:15:55;;;;;;;;;2.25;1.25;;;;;8.57;51.39;101839.81;2067690;28;48194;-57
2022/02/25 03:16:55;;;;;;;;;1.33;0.00;;;;;8.57;51.27;101837.19;2071889;28;47322;-58
2022/02/25 03:17:56;;;;;;;;;1.00;1.00;;;;;8.57;51.33;101847.75;2068234;28;47682;-57
2022/02/25 03:18:56;;;;;;;;;1.00;1.00;;;;;8.57;51.42;101843.34;2071636;28;47575;-58
2022/02/25 03:19:57;;;;;;;;;1.00;1.00;;;;;8.58;51.38;101837.19;2066368;28;47907;-58
2022/02/25 03:20:58;;;;;;;;;0.50;0.50;;;;;8.59;51.42;101838.06;2071607;28;48272;-57
2022/02/25 03:21:58;;;;;;;;;1.00;1.00;;;;;8.60;51.45;101839.81;2066775;28;47604;-58
2022/02/25 03:23:00;;;;;;;;;1.00;1.00;;;;;8.59;51.29;101841.59;2070466;28;47596;-58
2022/02/25 03:24:00;;;;;;;;;0.50;0.50;;;;;8.58;51.55;101845.13;2071785;28;48025;-58
2022/02/25 03:25:01;;;;;;;;;2.33;1.00;;;;;8.58;51.39;101846.88;2071789;28;47600;-57
2022/02/25 03:26:01;;;;;;;;;0.67;0.67;;;;;8.57;51.41;101851.28;2068472;28;47878;-55
2022/02/25 03:27:02;;;;;;;;;2.00;2.00;;;;;8.56;51.41;101846.88;2071023;28;47194;-57
2022/02/25 03:28:03;;;;;;;;;1.00;1.00;;;;;8.55;51.58;101853.06;2069040;28;47545;-57
2022/02/25 03:29:04;;;;;;;;;0.50;0.50;;;;;8.55;51.61;101846.00;2070880;28;47485;-58
2022/02/25 03:30:05;;;;;;;;;0.00;0.00;;;;;8.55;51.64;101847.75;2060147;28;48096;-58
2022/02/25 03:31:05;;;;;;;;;2.00;2.00;;;;;8.57;51.72;101850.41;2053471;28;47325;-57
2022/02/25 03:32:06;;;;;;;;;2.67;1.67;;;;;8.57;51.71;101853.94;2068887;28;48247;-57
2022/02/25 03:33:07;;;;;;;;;1.00;1.00;;;;;8.59;51.66;101853.94;2070506;28;46347;-57
2022/02/25 03:34:07;;;;;;;;;1.33;1.33;;;;;8.58;51.69;101854.81;2067898;28;47648;-55
2022/02/25 03:35:08;;;;;;;;;2.00;2.00;;;;;8.58;51.53;101854.81;2069523;28;47850;-56
2022/02/25 03:36:08;;;;;;;;;2.00;0.00;;;;;8.58;51.53;101857.47;2068669;28;47797;-58
2022/02/25 03:37:09;;;;;;;;;0.00;0.00;;;;;8.57;51.12;101863.63;2070565;28;47741;-56
2022/02/25 03:38:09;;;;;;;;;1.00;1.00;;;;;8.56;51.57;101857.47;2069214;28;48241;-58
2022/02/25 03:39:10;;;;;;;;;0.67;0.67;;;;;8.53;51.64;101858.34;2070186;28;47776;-56
2022/02/25 03:40:11;;;;;;;;;1.00;1.00;;;;;8.53;51.57;101860.97;2060180;28;47571;-57
2022/02/25 03:41:12;;;;;;;;;2.00;1.00;;;;;8.54;51.91;101856.56;2061149;28;47619;-58
2022/02/25 03:42:13;;;;;;;;;1.00;1.00;;;;;8.54;51.67;101857.47;2069595;28;47766;-58
2022/02/25 03:43:13;;;;;;;;;1.33;1.33;;;;;8.55;51.83;101855.69;2070001;28;47975;-60
2022/02/25 03:44:14;;;;;;;;;1.00;1.00;;;;;8.55;51.90;101855.69;2070835;28;47682;-55
2022/02/25 03:45:14;;;;;;;;;1.00;1.00;;;;;8.55;51.74;101847.75;2070069;28;47464;-58
2022/02/25 03:46:14;;;;;;;;;1.00;0.67;;;;;8.56;51.70;101857.47;2069865;28;47354;-58
2022/02/25 03:47:16;;;;;;;;;1.67;1.67;;;;;8.56;51.77;101852.16;2069781;28;47615;-58
2022/02/25 03:48:16;;;;;;;;;1.00;1.00;;;;;8.57;51.76;101861.00;2066148;28;48343;-56
2022/02/25 03:49:17;;;;;;;;;2.33;1.33;;;;;8.55;51.83;101856.56;2069113;28;47378;-57
2022/02/25 03:50:17;;;;;;;;;2.33;1.00;;;;;8.55;51.88;101861.00;2067825;28;47439;-57
2022/02/25 03:51:21;;;;;;;;;1.33;0.67;;;;;8.57;51.76;101863.63;2069178;28;47393;-58
2022/02/25 03:52:21;;;;;;;;;1.00;1.00;;;;;8.55;51.76;101864.50;2069837;28;47845;-58
2022/02/25 03:53:22;;;;;;;;;0.67;0.67;;;;;8.57;51.93;101863.63;2069258;28;47768;-58
2022/02/25 03:54:22;;;;;;;;;1.00;1.00;;;;;8.56;51.59;101854.81;2070231;28;47494;-54
2022/02/25 03:55:23;;;;;;;;;1.00;1.00;;;;;8.55;51.85;101867.16;2069395;28;48141;-58
2022/02/25 03:56:23;;;;;;;;;1.33;1.00;;;;;8.55;51.79;101863.63;2061388;28;47687;-56
2022/02/25 03:57:23;;;;;;;;;1.67;1.67;;;;;8.54;51.75;101875.97;2059906;28;48077;-56
2022/02/25 03:58:24;;;;;;;;;1.67;1.67;;;;;8.55;51.82;101861.00;2067805;28;47709;-59
2022/02/25 03:59:24;;;;;;;;;0.00;0.00;;;;;8.54;52.06;101865.41;2069303;28;47265;-59
2022/02/25 04:00:25;;;;;;;;;2.67;0.67;;;;;8.54;52.21;101873.34;2070465;28;47624;-58
2022/02/25 04:01:25;;;;;;;;;2.33;1.00;;;;;8.54;51.86;101872.44;2059686;28;48759;-59
2022/02/25 04:02:25;;;;;;;;;0.00;0.00;;;;;8.55;51.78;101874.22;2060998;28;47850;-56
2022/02/25 04:03:26;;;;;;;;;2.00;1.00;;;;;8.53;51.99;101871.56;2069192;28;48010;-58
2022/02/25 04:04:27;;;;;;;;;2.00;1.00;;;;;8.53;51.83;101875.97;2071206;28;47668;-58
2022/02/25 04:05:27;;;;;;;;;2.00;1.00;;;;;8.53;51.81;101881.25;2077303;28;47207;-58
2022/02/25 04:06:28;;;;;;;;;2.33;0.67;;;;;8.52;52.03;101884.78;2078095;28;47687;-57
2022/02/25 04:07:28;;;;;;;;;0.67;0.67;;;;;8.52;52.02;101879.50;2069263;28;47407;-59
2022/02/25 04:08:30;;;;;;;;;1.00;1.00;;;;;8.52;52.13;101882.16;2070070;28;47661;-56
2022/02/25 04:09:30;;;;;;;;;1.25;1.25;;;;;8.52;52.07;101887.44;2069179;28;48032;-59
2022/02/25 04:10:33;;;;;;;;;1.00;1.00;;;;;8.52;51.95;101884.78;2070360;28;47738;-57
2022/02/25 04:11:33;;;;;;;;;0.25;0.25;;;;;8.53;51.93;101884.78;2067492;28;47924;-58
2022/02/25 04:12:33;;;;;;;;;2.00;0.00;;;;;8.52;52.05;101888.31;2070400;28;47907;-58
2022/02/25 04:13:34;;;;;;;;;1.00;0.33;;;;;8.52;52.01;101883.03;2069071;28;47473;-58
2022/02/25 04:14:36;;;;;;;;;0.67;0.67;;;;;8.53;51.94;101890.09;2070867;28;47514;-59
2022/02/25 04:15:37;;;;;;;;;0.25;0.25;;;;;8.54;51.93;101888.31;2068948;28;47822;-56
2022/02/25 04:16:37;;;;;;;;;2.50;1.00;;;;;8.54;52.04;101890.97;2070198;28;47775;-58
2022/02/25 04:17:38;;;;;;;;;2.00;0.00;;;;;8.55;52.17;101895.38;2066699;28;47758;-58
2022/02/25 04:18:39;;;;;;;;;2.00;1.00;;;;;8.55;51.87;101895.38;2065088;28;47832;-57
2022/02/25 04:19:39;;;;;;;;;4.00;1.00;;;;;8.54;52.08;101902.44;2068636;28;47776;-58
2022/02/25 04:20:40;;;;;;;;;0.67;0.67;;;;;8.54;52.08;101889.22;2071159;28;47519;-58
2022/02/25 04:21:40;;;;;;;;;0.67;0.67;;;;;8.55;52.09;101895.38;2069950;28;47406;-57
2022/02/25 04:22:41;;;;;;;;;2.00;0.00;;;;;8.53;52.30;101887.44;2067888;28;47633;-59
2022/02/25 04:23:42;;;;;;;;;0.33;0.00;;;;;8.53;52.23;101895.38;2070839;28;48188;-59
2022/02/25 04:24:42;;;;;;;;;1.00;0.67;;;;;8.53;52.18;101889.19;2071165;28;48075;-57
2022/02/25 04:25:42;;;;;;;;;1.00;1.00;;;;;8.51;52.20;101894.50;2069435;28;47119;-57
2022/02/25 04:26:43;;;;;;;;;5.00;2.00;;;;;8.50;52.22;101890.03;2075746;28;47428;-58
2022/02/25 04:27:44;;;;;;;;;1.00;1.00;;;;;8.50;52.31;101882.09;2069036;28;47515;-58
2022/02/25 04:28:45;;;;;;;;;3.00;1.25;;;;;8.50;52.34;101892.69;2071428;28;48443;-58
2022/02/25 04:29:46;;;;;;;;;4.67;2.33;;;;;8.49;52.38;101890.03;2069052;28;46527;-57
2022/02/25 04:30:47;;;;;;;;;1.25;1.00;;;;;8.49;52.35;101884.75;2071359;28;48198;-57
2022/02/25 04:31:47;;;;;;;;;1.00;0.33;;;;;8.48;52.32;101893.56;2057606;28;47205;-58
2022/02/25 04:32:48;;;;;;;;;1.67;1.00;;;;;8.49;52.39;101895.34;2062050;28;46837;-57
2022/02/25 04:33:48;;;;;;;;;1.00;1.00;;;;;8.48;52.41;101902.38;2069386;28;48107;-57
2022/02/25 04:34:50;;;;;;;;;0.67;0.00;;;;;8.46;52.42;101908.53;2070385;28;47638;-58
2022/02/25 04:35:51;;;;;;;;;0.00;0.00;;;;;8.45;52.35;101906.78;2065596;28;47979;-57
2022/02/25 04:36:51;;;;;;;;;1.00;1.00;;;;;8.44;52.57;101897.97;2070697;28;47699;-57
2022/02/25 04:37:51;;;;;;;;;2.00;1.00;;;;;8.43;52.40;101903.25;2069261;28;47732;-58
2022/02/25 04:38:53;;;;;;;;;1.00;1.00;;;;;8.44;52.56;101905.00;2071038;28;47221;-57
2022/02/25 04:39:53;;;;;;;;;1.00;0.00;;;;;8.42;52.35;101910.31;2064978;28;47617;-57
2022/02/25 04:40:57;;;;;;;;;1.67;0.67;;;;;8.42;52.49;101910.31;2070870;28;47506;-58
2022/02/25 04:41:57;;;;;;;;;1.00;0.00;;;;;8.44;52.62;101913.84;2068728;28;47931;-57
2022/02/25 04:42:57;;;;;;;;;0.33;0.33;;;;;8.43;52.70;101913.81;2070920;28;47436;-58
2022/02/25 04:43:58;;;;;;;;;3.00;1.67;;;;;8.43;52.66;101917.34;2068391;28;47630;-57
2022/02/25 04:44:58;;;;;;;;;0.00;0.00;;;;;8.45;52.66;101925.28;2071087;28;47491;-57
2022/02/25 04:45:59;;;;;;;;;0.00;0.00;;;;;8.45;52.54;101931.47;2069246;28;47441;-58